sensor_id;sensor_type;location;lat;lon;timestamp;temperature;humidity
1936;DHT22;969;49.892;10.896;2024-02-21T00:01:22;21.70;56.90
1936;DHT22;969;49.892;10.896;2024-02-21T00:03:48;21.60;56.90
1936;DHT22;969;49.892;10.896;2024-02-21T00:06:13;21.70;57.00
1936;DHT22;969;49.892;10.896;2024-02-21T00:08:39;21.70;57.00
1936;DHT22;969;49.892;10.896;2024-02-21T00:11:04;21.70;57.00
1936;DHT22;969;49.892;10.896;2024-02-21T00:13:30;21.60;56.90
1936;DHT22;969;49.892;10.896;2024-02-21T00:15:56;21.60;56.90
1936;DHT22;969;49.892;10.896;2024-02-21T00:18:21;21.60;56.90
1936;DHT22;969;49.892;10.896;2024-02-21T00:20:47;21.60;56.90
1936;DHT22;969;49.892;10.896;2024-02-21T00:23:13;21.60;56.90
1936;DHT22;969;49.892;10.896;2024-02-21T00:25:38;21.60;56.90
1936;DHT22;969;49.892;10.896;2024-02-21T00:28:04;21.60;56.90
1936;DHT22;969;49.892;10.896;2024-02-21T00:30:31;21.60;56.90
1936;DHT22;969;49.892;10.896;2024-02-21T00:32:57;21.60;56.90
1936;DHT22;969;49.892;10.896;2024-02-21T00:35:22;21.60;56.90
1936;DHT22;969;49.892;10.896;2024-02-21T00:37:48;21.60;56.90
1936;DHT22;969;49.892;10.896;2024-02-21T00:40:14;21.60;56.90
1936;DHT22;969;49.892;10.896;2024-02-21T00:42:45;21.60;56.90
1936;DHT22;969;49.892;10.896;2024-02-21T00:45:11;21.60;56.90
1936;DHT22;969;49.892;10.896;2024-02-21T00:47:36;21.60;56.90
1936;DHT22;969;49.892;10.896;2024-02-21T00:50:02;21.60;56.90
1936;DHT22;969;49.892;10.896;2024-02-21T00:52:28;21.60;56.90
1936;DHT22;969;49.892;10.896;2024-02-21T00:54:53;21.60;56.90
1936;DHT22;969;49.892;10.896;2024-02-21T00:57:19;21.60;57.00
1936;DHT22;969;49.892;10.896;2024-02-21T00:59:45;21.60;56.90
1936;DHT22;969;49.892;10.896;2024-02-21T01:02:10;21.60;56.90
1936;DHT22;969;49.892;10.896;2024-02-21T01:04:36;21.60;57.00
1936;DHT22;969;49.892;10.896;2024-02-21T01:07:02;21.60;56.90
1936;DHT22;969;49.892;10.896;2024-02-21T01:09:27;21.60;56.90
1936;DHT22;969;49.892;10.896;2024-02-21T01:11:53;21.60;57.00
1936;DHT22;969;49.892;10.896;2024-02-21T01:14:18;21.60;57.00
1936;DHT22;969;49.892;10.896;2024-02-21T01:16:44;21.50;56.90
1936;DHT22;969;49.892;10.896;2024-02-21T01:19:10;21.50;56.90
1936;DHT22;969;49.892;10.896;2024-02-21T01:21:35;21.50;56.90
1936;DHT22;969;49.892;10.896;2024-02-21T01:24:01;21.50;56.90
1936;DHT22;969;49.892;10.896;2024-02-21T01:26:26;21.50;56.90
1936;DHT22;969;49.892;10.896;2024-02-21T01:28:52;21.50;56.90
1936;DHT22;969;49.892;10.896;2024-02-21T01:31:17;21.50;56.90
1936;DHT22;969;49.892;10.896;2024-02-21T01:33:43;21.50;56.90
1936;DHT22;969;49.892;10.896;2024-02-21T01:36:09;21.50;56.90
1936;DHT22;969;49.892;10.896;2024-02-21T01:38:34;21.50;56.90
1936;DHT22;969;49.892;10.896;2024-02-21T01:41:00;21.50;56.90
1936;DHT22;969;49.892;10.896;2024-02-21T01:43:26;21.50;56.90
1936;DHT22;969;49.892;10.896;2024-02-21T01:45:54;21.50;56.90
1936;DHT22;969;49.892;10.896;2024-02-21T01:48:21;21.50;56.90
1936;DHT22;969;49.892;10.896;2024-02-21T01:50:48;21.50;56.90
1936;DHT22;969;49.892;10.896;2024-02-21T01:53:18;21.50;56.90
1936;DHT22;969;49.892;10.896;2024-02-21T01:55:46;21.50;56.90
1936;DHT22;969;49.892;10.896;2024-02-21T01:58:13;21.50;56.90
1936;DHT22;969;49.892;10.896;2024-02-21T02:00:41;21.50;56.90
1936;DHT22;969;49.892;10.896;2024-02-21T02:03:09;21.50;56.90
1936;DHT22;969;49.892;10.896;2024-02-21T02:05:35;21.50;56.90
1936;DHT22;969;49.892;10.896;2024-02-21T02:08:01;21.50;56.90
1936;DHT22;969;49.892;10.896;2024-02-21T02:10:27;21.50;57.50
1936;DHT22;969;49.892;10.896;2024-02-21T02:12:52;21.50;56.90
1936;DHT22;969;49.892;10.896;2024-02-21T02:15:18;21.50;56.90
1936;DHT22;969;49.892;10.896;2024-02-21T02:17:44;21.50;56.90
1936;DHT22;969;49.892;10.896;2024-02-21T02:20:10;21.50;56.90
1936;DHT22;969;49.892;10.896;2024-02-21T02:22:37;21.50;56.90
1936;DHT22;969;49.892;10.896;2024-02-21T02:25:04;21.50;56.90
1936;DHT22;969;49.892;10.896;2024-02-21T02:27:30;21.50;56.90
1936;DHT22;969;49.892;10.896;2024-02-21T02:29:56;21.50;56.90
1936;DHT22;969;49.892;10.896;2024-02-21T02:32:22;21.50;56.90
1936;DHT22;969;49.892;10.896;2024-02-21T02:34:47;21.50;56.90
1936;DHT22;969;49.892;10.896;2024-02-21T02:37:13;21.50;56.90
1936;DHT22;969;49.892;10.896;2024-02-21T02:39:38;21.50;56.90
1936;DHT22;969;49.892;10.896;2024-02-21T02:42:04;21.50;56.90
1936;DHT22;969;49.892;10.896;2024-02-21T02:44:30;21.50;56.90
1936;DHT22;969;49.892;10.896;2024-02-21T02:46:55;21.50;56.90
1936;DHT22;969;49.892;10.896;2024-02-21T02:49:21;21.50;56.90
1936;DHT22;969;49.892;10.896;2024-02-21T02:51:46;21.50;56.90
1936;DHT22;969;49.892;10.896;2024-02-21T02:54:12;21.50;56.90
1936;DHT22;969;49.892;10.896;2024-02-21T02:56:38;21.50;56.90
1936;DHT22;969;49.892;10.896;2024-02-21T02:59:03;21.50;56.90
1936;DHT22;969;49.892;10.896;2024-02-21T03:01:29;21.50;56.90
1936;DHT22;969;49.892;10.896;2024-02-21T03:03:54;21.50;56.90
1936;DHT22;969;49.892;10.896;2024-02-21T03:06:20;21.50;56.90
1936;DHT22;969;49.892;10.896;2024-02-21T03:08:46;21.50;56.90
1936;DHT22;969;49.892;10.896;2024-02-21T03:11:11;21.50;57.50
1936;DHT22;969;49.892;10.896;2024-02-21T03:13:37;21.50;57.00
1936;DHT22;969;49.892;10.896;2024-02-21T03:16:03;21.50;56.90
1936;DHT22;969;49.892;10.896;2024-02-21T03:18:29;21.50;56.90
1936;DHT22;969;49.892;10.896;2024-02-21T03:20:54;21.50;56.90
1936;DHT22;969;49.892;10.896;2024-02-21T03:23:20;21.50;56.90
1936;DHT22;969;49.892;10.896;2024-02-21T03:25:45;21.50;56.90
1936;DHT22;969;49.892;10.896;2024-02-21T03:28:11;21.50;56.90
1936;DHT22;969;49.892;10.896;2024-02-21T03:30:37;21.50;56.90
1936;DHT22;969;49.892;10.896;2024-02-21T03:33:03;21.50;56.90
1936;DHT22;969;49.892;10.896;2024-02-21T03:35:28;21.50;56.90
1936;DHT22;969;49.892;10.896;2024-02-21T03:37:54;21.40;56.80
1936;DHT22;969;49.892;10.896;2024-02-21T03:40:20;21.50;56.90
1936;DHT22;969;49.892;10.896;2024-02-21T03:42:45;21.40;56.90
1936;DHT22;969;49.892;10.896;2024-02-21T03:45:11;21.50;57.00
1936;DHT22;969;49.892;10.896;2024-02-21T03:47:36;21.40;56.90
1936;DHT22;969;49.892;10.896;2024-02-21T03:50:02;21.40;56.90
1936;DHT22;969;49.892;10.896;2024-02-21T03:52:28;21.40;56.90
1936;DHT22;969;49.892;10.896;2024-02-21T03:54:53;21.40;56.90
1936;DHT22;969;49.892;10.896;2024-02-21T03:57:20;21.40;56.90
1936;DHT22;969;49.892;10.896;2024-02-21T03:59:49;21.40;56.90
1936;DHT22;969;49.892;10.896;2024-02-21T04:02:15;21.40;56.90
1936;DHT22;969;49.892;10.896;2024-02-21T04:04:43;21.40;56.90
1936;DHT22;969;49.892;10.896;2024-02-21T04:07:11;21.40;56.90
1936;DHT22;969;49.892;10.896;2024-02-21T04:09:37;21.40;56.90
1936;DHT22;969;49.892;10.896;2024-02-21T04:12:03;21.40;56.90
1936;DHT22;969;49.892;10.896;2024-02-21T04:14:29;21.40;56.90
1936;DHT22;969;49.892;10.896;2024-02-21T04:16:54;21.40;56.90
1936;DHT22;969;49.892;10.896;2024-02-21T04:19:20;21.40;56.90
1936;DHT22;969;49.892;10.896;2024-02-21T04:21:45;21.40;56.90
1936;DHT22;969;49.892;10.896;2024-02-21T04:24:11;21.40;56.90
1936;DHT22;969;49.892;10.896;2024-02-21T04:26:36;21.40;56.90
1936;DHT22;969;49.892;10.896;2024-02-21T04:29:02;21.40;56.90
1936;DHT22;969;49.892;10.896;2024-02-21T04:31:28;21.40;57.00
1936;DHT22;969;49.892;10.896;2024-02-21T04:33:53;21.40;56.90
1936;DHT22;969;49.892;10.896;2024-02-21T04:36:19;21.40;56.90
1936;DHT22;969;49.892;10.896;2024-02-21T04:38:45;21.40;56.90
1936;DHT22;969;49.892;10.896;2024-02-21T04:41:10;21.40;56.90
1936;DHT22;969;49.892;10.896;2024-02-21T04:43:36;21.40;56.90
1936;DHT22;969;49.892;10.896;2024-02-21T04:46:02;21.40;56.90
1936;DHT22;969;49.892;10.896;2024-02-21T04:48:27;21.40;56.90
1936;DHT22;969;49.892;10.896;2024-02-21T04:50:53;21.40;56.90
1936;DHT22;969;49.892;10.896;2024-02-21T04:53:18;21.40;56.90
1936;DHT22;969;49.892;10.896;2024-02-21T04:55:44;21.40;56.90
1936;DHT22;969;49.892;10.896;2024-02-21T04:58:10;21.40;56.90
1936;DHT22;969;49.892;10.896;2024-02-21T05:00:35;21.40;56.90
1936;DHT22;969;49.892;10.896;2024-02-21T05:03:01;21.40;56.90
1936;DHT22;969;49.892;10.896;2024-02-21T05:05:26;21.40;56.90
1936;DHT22;969;49.892;10.896;2024-02-21T05:07:52;21.40;56.90
1936;DHT22;969;49.892;10.896;2024-02-21T05:10:18;21.40;56.90
1936;DHT22;969;49.892;10.896;2024-02-21T05:12:44;21.40;56.90
1936;DHT22;969;49.892;10.896;2024-02-21T05:15:10;21.40;57.40
1936;DHT22;969;49.892;10.896;2024-02-21T05:17:35;21.40;56.90
1936;DHT22;969;49.892;10.896;2024-02-21T05:20:01;21.40;56.90
1936;DHT22;969;49.892;10.896;2024-02-21T05:22:27;21.40;56.90
1936;DHT22;969;49.892;10.896;2024-02-21T05:24:52;21.40;56.90
1936;DHT22;969;49.892;10.896;2024-02-21T05:27:18;21.40;56.90
1936;DHT22;969;49.892;10.896;2024-02-21T05:29:44;21.40;56.80
1936;DHT22;969;49.892;10.896;2024-02-21T05:32:09;21.40;56.80
1936;DHT22;969;49.892;10.896;2024-02-21T05:34:35;21.50;56.90
1936;DHT22;969;49.892;10.896;2024-02-21T05:37:01;21.50;56.90
1936;DHT22;969;49.892;10.896;2024-02-21T05:39:26;21.40;56.80
1936;DHT22;969;49.892;10.896;2024-02-21T05:41:53;21.40;56.80
1936;DHT22;969;49.892;10.896;2024-02-21T05:44:19;21.40;56.70
1936;DHT22;969;49.892;10.896;2024-02-21T05:46:45;21.40;56.70
1936;DHT22;969;49.892;10.896;2024-02-21T05:49:11;21.50;56.80
1936;DHT22;969;49.892;10.896;2024-02-21T05:51:36;21.40;57.30
1936;DHT22;969;49.892;10.896;2024-02-21T05:54:02;21.40;56.80
1936;DHT22;969;49.892;10.896;2024-02-21T05:56:28;21.50;56.80
1936;DHT22;969;49.892;10.896;2024-02-21T05:58:53;21.40;56.70
1936;DHT22;969;49.892;10.896;2024-02-21T06:01:19;21.40;56.70
1936;DHT22;969;49.892;10.896;2024-02-21T06:03:47;21.40;56.70
1936;DHT22;969;49.892;10.896;2024-02-21T06:06:12;21.40;56.70
1936;DHT22;969;49.892;10.896;2024-02-21T06:08:40;21.50;56.80
1936;DHT22;969;49.892;10.896;2024-02-21T06:11:05;21.40;56.70
1936;DHT22;969;49.892;10.896;2024-02-21T06:13:31;21.40;56.70
1936;DHT22;969;49.892;10.896;2024-02-21T06:15:56;21.40;56.80
1936;DHT22;969;49.892;10.896;2024-02-21T06:18:22;21.50;56.80
1936;DHT22;969;49.892;10.896;2024-02-21T06:20:47;21.50;56.80
1936;DHT22;969;49.892;10.896;2024-02-21T06:23:14;21.50;56.80
1936;DHT22;969;49.892;10.896;2024-02-21T06:25:41;21.50;56.80
1936;DHT22;969;49.892;10.896;2024-02-21T06:28:06;21.50;56.80
1936;DHT22;969;49.892;10.896;2024-02-21T06:30:32;21.50;56.80
1936;DHT22;969;49.892;10.896;2024-02-21T06:32:57;21.50;56.80
1936;DHT22;969;49.892;10.896;2024-02-21T06:35:24;21.50;56.80
1936;DHT22;969;49.892;10.896;2024-02-21T06:37:50;21.50;56.80
1936;DHT22;969;49.892;10.896;2024-02-21T06:40:17;21.50;56.70
1936;DHT22;969;49.892;10.896;2024-02-21T06:42:43;21.50;56.70
1936;DHT22;969;49.892;10.896;2024-02-21T06:45:09;21.60;56.80
1936;DHT22;969;49.892;10.896;2024-02-21T06:47:34;21.60;56.70
1936;DHT22;969;49.892;10.896;2024-02-21T06:50:00;21.60;56.70
1936;DHT22;969;49.892;10.896;2024-02-21T06:52:25;21.60;56.70
1936;DHT22;969;49.892;10.896;2024-02-21T06:54:52;21.60;56.70
1936;DHT22;969;49.892;10.896;2024-02-21T06:57:17;21.60;56.70
1936;DHT22;969;49.892;10.896;2024-02-21T06:59:43;21.70;56.70
1936;DHT22;969;49.892;10.896;2024-02-21T07:02:09;21.70;56.70
1936;DHT22;969;49.892;10.896;2024-02-21T07:04:34;21.70;56.70
1936;DHT22;969;49.892;10.896;2024-02-21T07:07:00;21.70;56.70
1936;DHT22;969;49.892;10.896;2024-02-21T07:09:26;21.70;56.70
1936;DHT22;969;49.892;10.896;2024-02-21T07:11:54;21.70;56.70
1936;DHT22;969;49.892;10.896;2024-02-21T07:14:19;21.70;56.70
1936;DHT22;969;49.892;10.896;2024-02-21T07:16:45;21.70;56.70
1936;DHT22;969;49.892;10.896;2024-02-21T07:19:10;21.70;56.70
1936;DHT22;969;49.892;10.896;2024-02-21T07:21:36;21.70;56.70
1936;DHT22;969;49.892;10.896;2024-02-21T07:24:04;21.70;56.70
1936;DHT22;969;49.892;10.896;2024-02-21T07:26:31;21.70;56.70
1936;DHT22;969;49.892;10.896;2024-02-21T07:28:56;21.70;56.80
1936;DHT22;969;49.892;10.896;2024-02-21T07:31:22;21.70;56.80
1936;DHT22;969;49.892;10.896;2024-02-21T07:33:47;21.70;56.70
1936;DHT22;969;49.892;10.896;2024-02-21T07:36:15;21.70;56.70
1936;DHT22;969;49.892;10.896;2024-02-21T07:38:41;21.70;56.70
1936;DHT22;969;49.892;10.896;2024-02-21T07:41:07;21.70;56.70
1936;DHT22;969;49.892;10.896;2024-02-21T07:43:32;21.70;56.70
1936;DHT22;969;49.892;10.896;2024-02-21T07:45:58;21.70;56.70
1936;DHT22;969;49.892;10.896;2024-02-21T07:48:23;21.70;56.70
1936;DHT22;969;49.892;10.896;2024-02-21T07:50:52;21.70;56.70
1936;DHT22;969;49.892;10.896;2024-02-21T07:53:17;21.80;56.70
1936;DHT22;969;49.892;10.896;2024-02-21T07:55:43;21.80;56.80
1936;DHT22;969;49.892;10.896;2024-02-21T07:58:09;21.80;56.70
1936;DHT22;969;49.892;10.896;2024-02-21T08:00:34;21.80;56.70
1936;DHT22;969;49.892;10.896;2024-02-21T08:03:00;21.80;56.70
1936;DHT22;969;49.892;10.896;2024-02-21T08:05:25;21.80;56.80
1936;DHT22;969;49.892;10.896;2024-02-21T08:07:51;21.80;56.80
1936;DHT22;969;49.892;10.896;2024-02-21T08:10:17;21.80;56.80
1936;DHT22;969;49.892;10.896;2024-02-21T08:12:42;21.80;56.80
1936;DHT22;969;49.892;10.896;2024-02-21T08:15:08;21.80;56.80
1936;DHT22;969;49.892;10.896;2024-02-21T08:17:36;21.80;56.90
1936;DHT22;969;49.892;10.896;2024-02-21T08:20:02;21.80;56.90
1936;DHT22;969;49.892;10.896;2024-02-21T08:22:28;21.80;56.90
1936;DHT22;969;49.892;10.896;2024-02-21T08:24:53;21.80;56.90
1936;DHT22;969;49.892;10.896;2024-02-21T08:27:19;21.80;56.90
1936;DHT22;969;49.892;10.896;2024-02-21T08:29:45;21.80;56.90
1936;DHT22;969;49.892;10.896;2024-02-21T08:32:10;21.80;56.90
1936;DHT22;969;49.892;10.896;2024-02-21T08:34:36;21.80;57.00
1936;DHT22;969;49.892;10.896;2024-02-21T08:37:01;21.80;57.00
1936;DHT22;969;49.892;10.896;2024-02-21T08:39:27;21.80;57.00
1936;DHT22;969;49.892;10.896;2024-02-21T08:41:55;21.80;57.00
1936;DHT22;969;49.892;10.896;2024-02-21T08:44:23;21.80;57.00
1936;DHT22;969;49.892;10.896;2024-02-21T08:46:51;21.80;57.00
1936;DHT22;969;49.892;10.896;2024-02-21T08:49:16;21.80;57.00
1936;DHT22;969;49.892;10.896;2024-02-21T08:51:42;21.80;57.00
1936;DHT22;969;49.892;10.896;2024-02-21T08:54:08;21.80;57.00
1936;DHT22;969;49.892;10.896;2024-02-21T08:56:34;21.80;57.00
1936;DHT22;969;49.892;10.896;2024-02-21T08:59:01;21.80;57.00
1936;DHT22;969;49.892;10.896;2024-02-21T09:01:26;21.80;57.00
1936;DHT22;969;49.892;10.896;2024-02-21T09:03:52;21.80;57.10
1936;DHT22;969;49.892;10.896;2024-02-21T09:06:19;21.80;57.00
1936;DHT22;969;49.892;10.896;2024-02-21T09:08:45;21.80;57.00
1936;DHT22;969;49.892;10.896;2024-02-21T09:11:11;21.80;57.00
1936;DHT22;969;49.892;10.896;2024-02-21T09:13:37;21.80;57.00
1936;DHT22;969;49.892;10.896;2024-02-21T09:16:02;21.80;57.00
1936;DHT22;969;49.892;10.896;2024-02-21T09:18:29;21.80;57.00
1936;DHT22;969;49.892;10.896;2024-02-21T09:20:55;21.80;57.00
1936;DHT22;969;49.892;10.896;2024-02-21T09:23:20;21.80;57.00
1936;DHT22;969;49.892;10.896;2024-02-21T09:25:46;21.80;57.00
1936;DHT22;969;49.892;10.896;2024-02-21T09:28:11;21.80;57.10
1936;DHT22;969;49.892;10.896;2024-02-21T09:30:38;21.80;57.00
1936;DHT22;969;49.892;10.896;2024-02-21T09:33:04;21.80;57.00
1936;DHT22;969;49.892;10.896;2024-02-21T09:35:30;21.80;57.00
1936;DHT22;969;49.892;10.896;2024-02-21T09:37:56;21.80;57.00
1936;DHT22;969;49.892;10.896;2024-02-21T09:40:21;21.80;57.00
1936;DHT22;969;49.892;10.896;2024-02-21T09:42:48;21.80;57.00
1936;DHT22;969;49.892;10.896;2024-02-21T09:45:23;21.80;57.60
1936;DHT22;969;49.892;10.896;2024-02-21T09:50:47;21.80;57.00
1936;DHT22;969;49.892;10.896;2024-02-21T09:53:14;21.80;57.00
1936;DHT22;969;49.892;10.896;2024-02-21T09:55:40;21.80;57.00
1936;DHT22;969;49.892;10.896;2024-02-21T09:58:10;21.80;57.10
1936;DHT22;969;49.892;10.896;2024-02-21T10:00:36;21.80;57.00
1936;DHT22;969;49.892;10.896;2024-02-21T10:03:03;21.80;57.00
1936;DHT22;969;49.892;10.896;2024-02-21T10:05:34;21.80;57.00
1936;DHT22;969;49.892;10.896;2024-02-21T10:08:01;21.80;57.00
1936;DHT22;969;49.892;10.896;2024-02-21T10:10:27;21.80;57.00
1936;DHT22;969;49.892;10.896;2024-02-21T10:12:53;21.80;57.10
1936;DHT22;969;49.892;10.896;2024-02-21T10:15:24;21.80;57.10
1936;DHT22;969;49.892;10.896;2024-02-21T10:17:58;21.80;57.10
1936;DHT22;969;49.892;10.896;2024-02-21T10:20:25;21.80;57.10
1936;DHT22;969;49.892;10.896;2024-02-21T10:23:04;21.80;57.10
1936;DHT22;969;49.892;10.896;2024-02-21T10:25:36;21.80;57.10
1936;DHT22;969;49.892;10.896;2024-02-21T10:28:12;21.80;57.10
1936;DHT22;969;49.892;10.896;2024-02-21T10:30:38;21.80;57.10
1936;DHT22;969;49.892;10.896;2024-02-21T10:33:05;21.80;57.20
1936;DHT22;969;49.892;10.896;2024-02-21T10:35:32;21.80;57.20
1936;DHT22;969;49.892;10.896;2024-02-21T10:37:59;21.80;57.20
1936;DHT22;969;49.892;10.896;2024-02-21T10:40:29;21.80;57.20
1936;DHT22;969;49.892;10.896;2024-02-21T10:43:01;21.80;57.20
1936;DHT22;969;49.892;10.896;2024-02-21T10:45:30;21.80;57.20
1936;DHT22;969;49.892;10.896;2024-02-21T10:50:29;21.80;57.20
1936;DHT22;969;49.892;10.896;2024-02-21T10:53:15;21.80;57.20
1936;DHT22;969;49.892;10.896;2024-02-21T10:55:49;21.80;57.20
1936;DHT22;969;49.892;10.896;2024-02-21T10:58:16;21.80;57.20
1936;DHT22;969;49.892;10.896;2024-02-21T11:00:43;21.80;57.20
1936;DHT22;969;49.892;10.896;2024-02-21T11:03:09;21.80;57.20
1936;DHT22;969;49.892;10.896;2024-02-21T11:05:35;21.80;57.20
1936;DHT22;969;49.892;10.896;2024-02-21T11:08:01;21.80;57.20
1936;DHT22;969;49.892;10.896;2024-02-21T11:10:27;21.80;57.20
1936;DHT22;969;49.892;10.896;2024-02-21T11:13:13;21.80;57.20
1936;DHT22;969;49.892;10.896;2024-02-21T11:15:39;21.80;57.20
1936;DHT22;969;49.892;10.896;2024-02-21T11:18:05;21.80;57.20
1936;DHT22;969;49.892;10.896;2024-02-21T11:20:35;21.80;57.20
1936;DHT22;969;49.892;10.896;2024-02-21T11:23:01;21.80;57.70
1936;DHT22;969;49.892;10.896;2024-02-21T11:25:28;21.80;57.20
1936;DHT22;969;49.892;10.896;2024-02-21T11:28:03;21.80;57.20
1936;DHT22;969;49.892;10.896;2024-02-21T11:30:32;21.80;57.20
1936;DHT22;969;49.892;10.896;2024-02-21T11:33:05;21.80;57.20
1936;DHT22;969;49.892;10.896;2024-02-21T11:35:32;21.80;57.20
1936;DHT22;969;49.892;10.896;2024-02-21T11:38:11;21.80;57.30
1936;DHT22;969;49.892;10.896;2024-02-21T11:40:40;21.80;57.20
1936;DHT22;969;49.892;10.896;2024-02-21T11:43:07;21.80;57.30
1936;DHT22;969;49.892;10.896;2024-02-21T11:45:33;21.80;57.30
1936;DHT22;969;49.892;10.896;2024-02-21T11:47:59;21.80;57.20
1936;DHT22;969;49.892;10.896;2024-02-21T11:50:26;21.80;57.30
1936;DHT22;969;49.892;10.896;2024-02-21T11:52:54;21.80;57.30
1936;DHT22;969;49.892;10.896;2024-02-21T11:55:21;21.80;57.30
1936;DHT22;969;49.892;10.896;2024-02-21T11:57:50;21.80;57.30
1936;DHT22;969;49.892;10.896;2024-02-21T12:00:17;21.80;57.20
1936;DHT22;969;49.892;10.896;2024-02-21T12:02:45;21.80;57.30
1936;DHT22;969;49.892;10.896;2024-02-21T12:05:11;21.80;57.30
1936;DHT22;969;49.892;10.896;2024-02-21T12:07:37;21.80;57.30
1936;DHT22;969;49.892;10.896;2024-02-21T12:10:15;21.80;57.30
1936;DHT22;969;49.892;10.896;2024-02-21T12:12:41;21.80;57.30
1936;DHT22;969;49.892;10.896;2024-02-21T12:15:07;21.80;57.30
1936;DHT22;969;49.892;10.896;2024-02-21T12:17:34;21.80;57.30
1936;DHT22;969;49.892;10.896;2024-02-21T12:20:01;21.80;57.30
1936;DHT22;969;49.892;10.896;2024-02-21T12:22:26;21.80;57.30
1936;DHT22;969;49.892;10.896;2024-02-21T12:24:53;21.80;57.30
1936;DHT22;969;49.892;10.896;2024-02-21T12:27:19;21.80;57.30
1936;DHT22;969;49.892;10.896;2024-02-21T12:29:44;21.80;57.20
1936;DHT22;969;49.892;10.896;2024-02-21T12:32:10;21.80;57.20
1936;DHT22;969;49.892;10.896;2024-02-21T12:34:36;21.80;57.30
1936;DHT22;969;49.892;10.896;2024-02-21T12:37:02;21.80;57.30
1936;DHT22;969;49.892;10.896;2024-02-21T12:39:28;21.80;57.30
1936;DHT22;969;49.892;10.896;2024-02-21T12:41:54;21.80;57.30
1936;DHT22;969;49.892;10.896;2024-02-21T12:44:21;21.80;57.30
1936;DHT22;969;49.892;10.896;2024-02-21T12:46:47;21.80;57.30
1936;DHT22;969;49.892;10.896;2024-02-21T12:49:18;21.80;57.30
1936;DHT22;969;49.892;10.896;2024-02-21T12:51:44;21.80;57.30
1936;DHT22;969;49.892;10.896;2024-02-21T12:54:12;21.80;57.30
1936;DHT22;969;49.892;10.896;2024-02-21T12:56:37;21.80;57.80
1936;DHT22;969;49.892;10.896;2024-02-21T12:59:03;21.80;57.30
1936;DHT22;969;49.892;10.896;2024-02-21T13:01:29;21.80;57.30
1936;DHT22;969;49.892;10.896;2024-02-21T13:03:54;21.80;57.30
1936;DHT22;969;49.892;10.896;2024-02-21T13:06:21;21.80;57.30
1936;DHT22;969;49.892;10.896;2024-02-21T13:08:46;21.80;57.30
1936;DHT22;969;49.892;10.896;2024-02-21T13:11:12;21.80;57.90
1936;DHT22;969;49.892;10.896;2024-02-21T13:13:38;21.80;57.30
1936;DHT22;969;49.892;10.896;2024-02-21T13:16:04;21.80;57.30
1936;DHT22;969;49.892;10.896;2024-02-21T13:18:30;21.80;57.30
1936;DHT22;969;49.892;10.896;2024-02-21T13:20:56;21.80;57.30
1936;DHT22;969;49.892;10.896;2024-02-21T13:23:21;21.80;57.30
1936;DHT22;969;49.892;10.896;2024-02-21T13:25:47;21.80;57.40
1936;DHT22;969;49.892;10.896;2024-02-21T13:28:13;21.80;57.30
1936;DHT22;969;49.892;10.896;2024-02-21T13:30:40;21.90;57.40
1936;DHT22;969;49.892;10.896;2024-02-21T13:33:07;21.90;57.40
1936;DHT22;969;49.892;10.896;2024-02-21T13:35:32;21.80;57.40
1936;DHT22;969;49.892;10.896;2024-02-21T13:37:58;21.80;57.40
1936;DHT22;969;49.892;10.896;2024-02-21T13:40:24;21.80;57.30
1936;DHT22;969;49.892;10.896;2024-02-21T13:42:50;21.90;57.40
1936;DHT22;969;49.892;10.896;2024-02-21T13:45:16;21.80;57.40
1936;DHT22;969;49.892;10.896;2024-02-21T13:47:42;21.80;57.30
1936;DHT22;969;49.892;10.896;2024-02-21T13:50:08;21.80;57.30
1936;DHT22;969;49.892;10.896;2024-02-21T13:52:37;21.90;57.40
1936;DHT22;969;49.892;10.896;2024-02-21T13:55:03;21.80;57.40
1936;DHT22;969;49.892;10.896;2024-02-21T13:57:29;21.80;57.30
1936;DHT22;969;49.892;10.896;2024-02-21T13:59:54;21.80;57.30
1936;DHT22;969;49.892;10.896;2024-02-21T14:02:20;21.80;57.30
1936;DHT22;969;49.892;10.896;2024-02-21T14:04:46;21.80;57.30
1936;DHT22;969;49.892;10.896;2024-02-21T14:07:12;21.80;57.30
1936;DHT22;969;49.892;10.896;2024-02-21T14:09:38;21.80;57.30
1936;DHT22;969;49.892;10.896;2024-02-21T14:12:04;21.80;57.30
1936;DHT22;969;49.892;10.896;2024-02-21T14:14:34;21.80;57.30
1936;DHT22;969;49.892;10.896;2024-02-21T14:17:00;21.80;57.30
1936;DHT22;969;49.892;10.896;2024-02-21T14:19:26;21.80;57.30
1936;DHT22;969;49.892;10.896;2024-02-21T14:21:51;21.80;57.30
1936;DHT22;969;49.892;10.896;2024-02-21T14:24:18;21.80;57.30
1936;DHT22;969;49.892;10.896;2024-02-21T14:26:43;21.80;57.30
1936;DHT22;969;49.892;10.896;2024-02-21T14:29:09;21.80;57.30
1936;DHT22;969;49.892;10.896;2024-02-21T14:31:35;21.80;57.30
1936;DHT22;969;49.892;10.896;2024-02-21T14:34:00;21.80;57.30
1936;DHT22;969;49.892;10.896;2024-02-21T14:36:27;21.80;57.30
1936;DHT22;969;49.892;10.896;2024-02-21T14:38:53;21.80;57.30
1936;DHT22;969;49.892;10.896;2024-02-21T14:41:18;21.80;57.30
1936;DHT22;969;49.892;10.896;2024-02-21T14:43:45;21.80;57.30
1936;DHT22;969;49.892;10.896;2024-02-21T14:46:11;21.80;57.30
1936;DHT22;969;49.892;10.896;2024-02-21T14:48:38;21.80;57.30
1936;DHT22;969;49.892;10.896;2024-02-21T14:51:04;21.80;57.30
1936;DHT22;969;49.892;10.896;2024-02-21T14:53:29;21.80;57.30
1936;DHT22;969;49.892;10.896;2024-02-21T14:55:56;21.80;57.30
1936;DHT22;969;49.892;10.896;2024-02-21T14:58:23;21.80;57.30
1936;DHT22;969;49.892;10.896;2024-02-21T15:00:49;21.80;57.30
1936;DHT22;969;49.892;10.896;2024-02-21T15:03:16;21.80;57.30
1936;DHT22;969;49.892;10.896;2024-02-21T15:05:45;21.80;57.30
1936;DHT22;969;49.892;10.896;2024-02-21T15:08:11;21.80;57.30
1936;DHT22;969;49.892;10.896;2024-02-21T15:10:37;21.80;57.30
1936;DHT22;969;49.892;10.896;2024-02-21T15:13:03;21.80;57.30
1936;DHT22;969;49.892;10.896;2024-02-21T15:15:29;21.80;57.30
1936;DHT22;969;49.892;10.896;2024-02-21T15:17:54;21.80;57.30
1936;DHT22;969;49.892;10.896;2024-02-21T15:20:20;21.80;57.30
1936;DHT22;969;49.892;10.896;2024-02-21T15:22:46;21.80;57.20
1936;DHT22;969;49.892;10.896;2024-02-21T15:25:11;21.80;57.30
1936;DHT22;969;49.892;10.896;2024-02-21T15:27:44;21.80;57.30
1936;DHT22;969;49.892;10.896;2024-02-21T15:30:13;21.80;57.20
1936;DHT22;969;49.892;10.896;2024-02-21T15:32:39;21.80;57.30
1936;DHT22;969;49.892;10.896;2024-02-21T15:35:06;21.70;57.20
1936;DHT22;969;49.892;10.896;2024-02-21T15:37:34;21.70;57.20
1936;DHT22;969;49.892;10.896;2024-02-21T15:40:00;21.80;57.30
1936;DHT22;969;49.892;10.896;2024-02-21T15:42:26;21.80;57.30
1936;DHT22;969;49.892;10.896;2024-02-21T15:44:52;21.80;57.30
1936;DHT22;969;49.892;10.896;2024-02-21T15:47:18;21.80;57.30
1936;DHT22;969;49.892;10.896;2024-02-21T15:49:47;21.80;57.30
1936;DHT22;969;49.892;10.896;2024-02-21T15:52:12;21.80;57.30
1936;DHT22;969;49.892;10.896;2024-02-21T15:54:38;21.80;57.30
1936;DHT22;969;49.892;10.896;2024-02-21T15:57:05;21.80;57.30
1936;DHT22;969;49.892;10.896;2024-02-21T15:59:31;21.80;57.30
1936;DHT22;969;49.892;10.896;2024-02-21T16:01:57;21.80;57.20